createdAt,value
2023-03-13T00:01:41.419Z,2.30
2023-03-13T00:04:08.761Z,2.30
2023-03-13T00:06:37.039Z,2.30
2023-03-13T00:09:05.527Z,2.20
2023-03-13T00:11:32.929Z,2.20
2023-03-13T00:14:01.180Z,2.20
2023-03-13T00:16:28.490Z,2.20
2023-03-13T00:18:56.160Z,2.10
2023-03-13T00:21:24.453Z,2.10
2023-03-13T00:23:51.859Z,2.10
2023-03-13T00:26:20.114Z,2.10
2023-03-13T00:28:47.123Z,2.10
2023-03-13T00:31:18.504Z,2.10
2023-03-13T00:33:46.986Z,2.10
2023-03-13T00:36:18.083Z,2.10
2023-03-13T00:38:45.133Z,2.20
2023-03-13T00:41:13.564Z,2.20
2023-03-13T00:43:41.389Z,2.10
2023-03-13T00:46:08.831Z,2.00
2023-03-13T00:48:35.963Z,1.90
2023-03-13T00:51:03.469Z,1.90
2023-03-13T00:53:30.374Z,1.90
2023-03-13T00:56:07.138Z,1.80
2023-03-13T00:58:38.354Z,1.80
2023-03-13T01:01:19.581Z,1.80
2023-03-13T01:03:48.023Z,1.80
2023-03-13T01:06:16.481Z,1.80
2023-03-13T01:08:43.412Z,1.80
2023-03-13T01:11:12.128Z,1.80
2023-03-13T01:13:39.541Z,1.80
2023-03-13T01:16:10.739Z,1.90
2023-03-13T01:18:38.798Z,2.10
2023-03-13T01:21:06.499Z,2.00
2023-03-13T01:23:33.598Z,1.90
2023-03-13T01:26:00.965Z,1.90
2023-03-13T01:28:27.952Z,1.80
2023-03-13T01:30:54.965Z,1.70
2023-03-13T01:33:22.018Z,1.70
2023-03-13T01:35:48.939Z,1.70
2023-03-13T01:38:15.892Z,1.70
2023-03-13T01:40:44.163Z,1.70
2023-03-13T01:43:26.489Z,1.80
2023-03-13T01:45:54.684Z,1.80
2023-03-13T01:48:26.169Z,1.80
2023-03-13T01:50:54.350Z,1.80
2023-03-13T01:53:21.308Z,1.80
2023-03-13T01:55:48.288Z,1.70
2023-03-13T01:58:17.709Z,1.70
2023-03-13T02:00:45.769Z,1.80
2023-03-13T02:03:14.758Z,1.70
2023-03-13T02:05:42.839Z,1.60
2023-03-13T02:08:19.159Z,1.60
2023-03-13T02:10:54.337Z,1.70
2023-03-13T02:13:21.559Z,1.70
2023-03-13T02:15:49.015Z,1.70
2023-03-13T02:18:16.370Z,1.60
2023-03-13T02:20:43.434Z,1.60
2023-03-13T02:23:14.755Z,1.50
2023-03-13T02:25:46.786Z,1.50
2023-03-13T02:28:16.153Z,1.50
2023-03-13T02:30:43.894Z,1.40
2023-03-13T02:33:11.719Z,1.50
2023-03-13T02:35:39.398Z,1.40
2023-03-13T02:38:07.816Z,1.40
2023-03-13T02:40:39.613Z,1.50
2023-03-13T02:43:12.240Z,1.50
2023-03-13T02:45:39.215Z,1.50
2023-03-13T02:48:06.340Z,1.50
2023-03-13T02:50:33.646Z,1.50
2023-03-13T02:53:03.339Z,1.50
2023-03-13T02:55:33.022Z,1.50
2023-03-13T02:57:59.982Z,1.50
2023-03-13T03:00:27.333Z,1.50
2023-03-13T03:02:54.592Z,1.50
2023-03-13T03:05:22.445Z,1.50
2023-03-13T03:07:49.889Z,1.50
2023-03-13T03:10:17.909Z,1.40
2023-03-13T03:12:44.779Z,1.40
2023-03-13T03:15:12.119Z,1.40
2023-03-13T03:17:39.320Z,1.40
2023-03-13T03:20:12.115Z,1.40
2023-03-13T03:22:40.943Z,1.40
2023-03-13T03:25:09.470Z,1.40
2023-03-13T03:27:36.941Z,1.40
2023-03-13T03:30:07.125Z,1.40
2023-03-13T03:32:34.158Z,1.40
2023-03-13T03:35:01.062Z,1.50
2023-03-13T03:37:28.020Z,1.50
2023-03-13T03:39:54.875Z,1.50
2023-03-13T03:42:21.907Z,1.50
2023-03-13T03:44:48.824Z,1.50
2023-03-13T03:47:15.723Z,1.50
2023-03-13T03:49:42.602Z,1.40
2023-03-13T03:52:09.566Z,1.50
2023-03-13T03:54:36.538Z,1.50
2023-03-13T03:57:03.490Z,1.40
2023-03-13T03:59:30.433Z,1.40
2023-03-13T04:01:57.510Z,1.40
2023-03-13T04:04:24.376Z,1.40
2023-03-13T04:06:51.285Z,1.40
2023-03-13T04:09:18.101Z,1.40
2023-03-13T04:11:45.049Z,1.40
2023-03-13T04:14:12.100Z,1.40
2023-03-13T04:16:39.069Z,1.50
2023-03-13T04:19:06.014Z,1.50
2023-03-13T04:21:32.991Z,1.50
2023-03-13T04:24:00.151Z,1.50
2023-03-13T04:26:27.089Z,1.40
2023-03-13T04:28:53.992Z,1.40
2023-03-13T04:31:20.869Z,1.40
2023-03-13T04:33:47.849Z,1.40
2023-03-13T04:36:14.865Z,1.40
2023-03-13T04:38:41.812Z,1.40
2023-03-13T04:41:08.698Z,1.30
2023-03-13T04:43:35.684Z,1.30
2023-03-13T04:46:02.677Z,1.30
2023-03-13T04:48:29.606Z,1.30
2023-03-13T04:50:56.600Z,1.30
2023-03-13T04:53:23.604Z,1.30
2023-03-13T04:55:51.044Z,1.30
2023-03-13T04:58:18.022Z,1.30
2023-03-13T05:00:44.841Z,1.30
2023-03-13T05:03:11.744Z,1.40
2023-03-13T05:05:38.779Z,1.30
2023-03-13T05:08:06.364Z,1.40
2023-03-13T05:10:33.429Z,1.40
2023-03-13T05:13:00.472Z,1.40
2023-03-13T05:15:27.298Z,1.40
2023-03-13T05:17:54.810Z,1.50
2023-03-13T05:20:21.904Z,1.50
2023-03-13T05:22:50.059Z,1.60
2023-03-13T05:25:17.002Z,1.60
2023-03-13T05:27:43.975Z,1.60
2023-03-13T05:30:11.292Z,1.60
2023-03-13T05:32:38.281Z,1.70
2023-03-13T05:35:05.368Z,1.80
2023-03-13T05:37:32.268Z,1.90
2023-03-13T05:39:59.266Z,2.00
2023-03-13T05:42:26.997Z,2.10
2023-03-13T05:44:53.912Z,2.20
2023-03-13T05:47:20.877Z,2.20
2023-03-13T05:49:47.857Z,2.40
2023-03-13T05:52:14.706Z,2.50
2023-03-13T05:54:41.665Z,2.60
2023-03-13T05:57:08.734Z,2.70
2023-03-13T05:59:35.648Z,2.80
2023-03-13T06:02:02.591Z,3.00
2023-03-13T06:04:29.775Z,3.10
2023-03-13T06:06:56.859Z,3.30
2023-03-13T06:09:23.888Z,3.40
2023-03-13T06:11:50.835Z,3.60
2023-03-13T06:14:17.859Z,3.80
2023-03-13T06:16:44.753Z,4.00
2023-03-13T06:19:12.225Z,4.20
2023-03-13T06:21:39.186Z,4.30
2023-03-13T06:24:06.379Z,4.50
2023-03-13T06:26:33.372Z,4.50
2023-03-13T06:29:00.347Z,4.60
2023-03-13T06:31:27.365Z,4.60
2023-03-13T06:33:54.668Z,4.80
2023-03-13T06:36:22.180Z,4.90
2023-03-13T06:38:49.146Z,4.90
2023-03-13T06:41:16.415Z,5.00
2023-03-13T06:43:43.641Z,5.00
2023-03-13T06:46:16.266Z,5.00
2023-03-13T06:48:44.481Z,4.90
2023-03-13T06:51:12.208Z,5.10
2023-03-13T06:53:39.206Z,5.30
2023-03-13T06:56:06.695Z,5.40
2023-03-13T06:58:34.032Z,5.50
2023-03-13T07:01:06.547Z,5.60
2023-03-13T07:03:33.679Z,5.70
2023-03-13T07:06:00.743Z,5.80
2023-03-13T07:08:27.872Z,6.10
2023-03-13T07:10:58.074Z,6.10
2023-03-13T07:13:24.993Z,6.40
2023-03-13T07:15:52.126Z,6.70
2023-03-13T07:18:18.987Z,6.80
2023-03-13T07:20:45.910Z,6.90
2023-03-13T07:23:12.715Z,6.90
2023-03-13T07:25:39.982Z,6.90
2023-03-13T07:28:06.844Z,6.90
2023-03-13T07:30:33.667Z,7.10
2023-03-13T07:33:00.753Z,7.10
2023-03-13T07:35:27.671Z,7.10
2023-03-13T07:37:54.552Z,7.00
2023-03-13T07:40:21.447Z,7.10
2023-03-13T07:42:48.348Z,7.20
2023-03-13T07:45:15.241Z,7.60
2023-03-13T07:47:42.256Z,7.80
2023-03-13T07:50:09.568Z,8.00
2023-03-13T07:52:36.558Z,8.10
2023-03-13T07:55:03.558Z,8.20
2023-03-13T07:57:30.858Z,8.40
2023-03-13T07:59:57.713Z,8.70
2023-03-13T08:02:24.637Z,8.70
2023-03-13T08:04:52.281Z,8.90
2023-03-13T08:07:19.221Z,8.70
2023-03-13T08:09:46.380Z,8.90
2023-03-13T08:12:13.306Z,9.10
2023-03-13T08:14:40.213Z,9.30
2023-03-13T08:17:07.171Z,9.50
2023-03-13T08:19:34.278Z,9.60
2023-03-13T08:22:01.258Z,9.50
2023-03-13T08:24:28.202Z,9.70
2023-03-13T08:26:55.051Z,9.80
2023-03-13T08:29:22.003Z,10.00
2023-03-13T08:31:50.239Z,10.10
2023-03-13T08:34:17.855Z,10.30
2023-03-13T08:36:44.792Z,10.30
2023-03-13T08:39:15.556Z,10.30
2023-03-13T08:41:42.635Z,10.40
2023-03-13T08:44:13.913Z,10.50
2023-03-13T08:46:40.903Z,10.60
2023-03-13T08:49:08.035Z,10.70
2023-03-13T08:51:35.594Z,10.80
2023-03-13T08:54:03.393Z,10.90
2023-03-13T08:56:31.138Z,10.90
2023-03-13T08:59:00.003Z,11.00
2023-03-13T09:01:28.395Z,11.10
2023-03-13T09:03:56.022Z,11.20
2023-03-13T09:06:23.168Z,11.40
2023-03-13T09:08:49.994Z,11.50
2023-03-13T09:11:17.986Z,11.50
2023-03-13T09:13:46.360Z,11.50
2023-03-13T09:16:23.067Z,11.60
2023-03-13T09:18:50.340Z,11.80
2023-03-13T09:21:21.570Z,11.90
2023-03-13T09:23:48.759Z,12.00
2023-03-13T09:26:16.085Z,11.90
2023-03-13T09:28:43.830Z,11.90
2023-03-13T09:31:12.280Z,12.00
2023-03-13T09:33:39.546Z,12.10
2023-03-13T09:36:06.966Z,12.20
2023-03-13T09:38:33.910Z,12.30
2023-03-13T09:41:16.245Z,12.40
2023-03-13T09:43:46.343Z,12.50
2023-03-13T09:46:36.714Z,12.70
2023-03-13T09:49:36.132Z,12.60
2023-03-13T09:52:11.835Z,12.70
2023-03-13T09:54:40.400Z,12.80
2023-03-13T09:57:10.419Z,12.90
2023-03-13T09:59:43.681Z,13.00
2023-03-13T10:02:19.743Z,13.10
2023-03-13T10:04:50.156Z,13.30
2023-03-13T10:07:17.139Z,13.20
2023-03-13T10:09:44.163Z,13.40
2023-03-13T10:12:21.532Z,13.50
2023-03-13T10:14:48.452Z,13.80
2023-03-13T10:17:15.326Z,14.00
2023-03-13T10:19:43.622Z,14.00
2023-03-13T10:22:15.229Z,14.00
2023-03-13T10:25:00.637Z,14.10
2023-03-13T10:27:27.724Z,14.10
2023-03-13T10:29:54.648Z,14.20
2023-03-13T10:32:21.971Z,14.30
2023-03-13T10:34:51.567Z,14.40
2023-03-13T10:37:23.369Z,14.50
2023-03-13T10:39:50.918Z,14.60
2023-03-13T10:42:28.360Z,14.70
2023-03-13T10:44:59.526Z,14.70
2023-03-13T10:47:26.753Z,14.90
2023-03-13T10:49:57.359Z,15.00
2023-03-13T10:52:35.434Z,15.20
2023-03-13T10:55:04.548Z,15.20
2023-03-13T10:57:32.359Z,15.40
2023-03-13T10:59:59.729Z,15.40
2023-03-13T11:02:36.290Z,15.50
2023-03-13T11:05:03.996Z,15.50
2023-03-13T11:07:34.682Z,15.70
2023-03-13T11:10:13.765Z,15.80
2023-03-13T11:12:44.727Z,15.90
2023-03-13T11:15:23.618Z,15.90
2023-03-13T11:17:59.619Z,16.00
2023-03-13T11:20:33.333Z,16.00
2023-03-13T11:23:15.153Z,16.10
2023-03-13T11:26:01.384Z,16.30
2023-03-13T11:28:47.224Z,16.40
2023-03-13T11:31:30.153Z,16.50
2023-03-13T11:34:05.783Z,16.60
2023-03-13T11:36:39.109Z,16.70
2023-03-13T11:39:24.565Z,16.70
2023-03-13T11:42:02.160Z,16.80
2023-03-13T11:44:39.461Z,17.00
2023-03-13T11:47:21.655Z,17.10
2023-03-13T11:49:55.706Z,17.10
2023-03-13T11:52:30.358Z,17.20
2023-03-13T11:55:13.260Z,17.30
2023-03-13T11:57:52.159Z,17.40
2023-03-13T12:00:25.115Z,17.50
2023-03-13T12:02:55.112Z,17.50
2023-03-13T12:05:23.226Z,17.50
2023-03-13T12:07:56.137Z,17.60
2023-03-13T12:10:49.484Z,17.70
2023-03-13T12:13:36.767Z,17.90
2023-03-13T12:16:08.331Z,18.00
2023-03-13T12:18:38.815Z,18.10
2023-03-13T12:21:14.096Z,18.20
2023-03-13T12:23:47.077Z,18.10
2023-03-13T12:26:30.834Z,18.20
2023-03-13T12:29:03.323Z,18.30
2023-03-13T12:31:34.182Z,18.20
2023-03-13T12:34:01.202Z,18.30
2023-03-13T12:36:39.515Z,18.30
2023-03-13T12:39:24.693Z,18.50
2023-03-13T12:42:11.790Z,18.50
2023-03-13T12:44:39.654Z,18.50
2023-03-13T12:47:09.689Z,18.50
2023-03-13T12:49:43.478Z,18.60
2023-03-13T12:52:16.757Z,18.70
2023-03-13T12:54:46.858Z,18.80
2023-03-13T12:57:16.922Z,18.80
2023-03-13T12:59:46.588Z,18.90
2023-03-13T13:02:18.894Z,19.00
2023-03-13T13:04:47.309Z,19.20
2023-03-13T13:07:27.353Z,19.20
2023-03-13T13:10:09.289Z,19.30
2023-03-13T13:12:40.320Z,19.30
2023-03-13T13:15:23.214Z,19.30
2023-03-13T13:17:54.976Z,19.30
2023-03-13T13:20:31.341Z,19.50
2023-03-13T13:23:18.156Z,19.60
2023-03-13T13:25:45.130Z,19.60
2023-03-13T13:28:22.132Z,19.60
2023-03-13T13:30:50.047Z,19.80
2023-03-13T13:33:29.188Z,19.90
2023-03-13T13:36:21.517Z,19.90
2023-03-13T13:38:48.484Z,20.00
2023-03-13T13:41:15.459Z,20.00
2023-03-13T13:43:46.607Z,20.00
2023-03-13T13:46:13.449Z,20.00
2023-03-13T13:48:43.577Z,20.00
2023-03-13T13:51:16.314Z,20.20
2023-03-13T13:53:47.184Z,20.40
2023-03-13T13:56:41.310Z,20.60
2023-03-13T13:59:20.572Z,20.80
2023-03-13T14:01:48.886Z,20.50
2023-03-13T14:04:17.536Z,20.50
2023-03-13T14:06:47.818Z,20.50
2023-03-13T14:09:20.924Z,20.60
2023-03-13T14:11:47.979Z,20.70
2023-03-13T14:14:19.489Z,20.90
2023-03-13T14:16:47.973Z,21.20
2023-03-13T14:19:30.143Z,21.40
2023-03-13T14:22:04.661Z,21.50
2023-03-13T14:24:31.942Z,21.30
2023-03-13T14:26:59.045Z,21.60
2023-03-13T14:29:33.556Z,21.80
2023-03-13T14:32:05.512Z,21.90
2023-03-13T14:34:33.410Z,21.90
2023-03-13T14:37:17.425Z,22.00
2023-03-13T14:39:45.792Z,22.00
2023-03-13T14:42:14.037Z,22.10
2023-03-13T14:44:44.361Z,22.00
2023-03-13T14:47:32.674Z,21.80
2023-03-13T14:50:10.347Z,21.80
2023-03-13T14:52:40.096Z,21.90
2023-03-13T14:55:26.058Z,21.70
2023-03-13T14:57:57.751Z,21.60
2023-03-13T15:00:38.708Z,21.60
2023-03-13T15:03:16.865Z,21.50
2023-03-13T15:05:44.894Z,21.50
2023-03-13T15:08:16.182Z,21.50
2023-03-13T15:10:43.399Z,21.30
2023-03-13T15:13:29.512Z,21.10
2023-03-13T15:15:57.103Z,21.10
2023-03-13T15:18:25.423Z,20.90
2023-03-13T15:20:53.738Z,20.90
2023-03-13T15:23:21.248Z,21.00
2023-03-13T15:25:48.301Z,21.00
2023-03-13T15:28:17.169Z,21.00
2023-03-13T15:30:44.575Z,20.90
2023-03-13T15:33:19.687Z,20.90
2023-03-13T15:35:47.022Z,21.00
2023-03-13T15:38:15.117Z,21.00
2023-03-13T15:40:42.600Z,21.00
2023-03-13T15:43:09.753Z,21.00
2023-03-13T15:45:37.334Z,21.00
2023-03-13T15:48:11.065Z,21.00
2023-03-13T15:50:38.036Z,21.00
2023-03-13T15:53:11.899Z,20.90
2023-03-13T15:55:39.079Z,20.80
2023-03-13T15:58:05.997Z,20.70
2023-03-13T16:00:32.896Z,20.50
2023-03-13T16:03:00.128Z,20.40
2023-03-13T16:05:27.029Z,20.30
2023-03-13T16:07:54.028Z,20.20
2023-03-13T16:10:26.047Z,20.00
2023-03-13T16:12:53.896Z,20.00
2023-03-13T16:15:21.023Z,19.90
2023-03-13T16:17:48.083Z,19.80
2023-03-13T16:20:17.165Z,19.70
2023-03-13T16:22:44.864Z,19.50
2023-03-13T16:25:12.248Z,19.50
2023-03-13T16:27:40.586Z,19.40
2023-03-13T16:30:18.650Z,19.30
2023-03-13T16:32:45.996Z,19.10
2023-03-13T16:35:13.007Z,18.90
2023-03-13T16:37:40.049Z,18.80
2023-03-13T16:40:15.438Z,18.70
2023-03-13T16:42:42.640Z,18.60
2023-03-13T16:45:10.084Z,18.50
2023-03-13T16:47:37.049Z,18.40
2023-03-13T16:50:12.741Z,18.20
2023-03-13T16:52:39.578Z,18.10
2023-03-13T16:55:06.820Z,17.90
2023-03-13T16:57:33.739Z,17.80
2023-03-13T17:00:00.685Z,17.60
2023-03-13T17:02:29.767Z,17.50
2023-03-13T17:04:56.760Z,17.40
2023-03-13T17:07:26.762Z,17.40
2023-03-13T17:09:53.821Z,17.40
2023-03-13T17:12:20.770Z,17.20
2023-03-13T17:14:47.873Z,17.20
2023-03-13T17:17:19.671Z,17.10
2023-03-13T17:19:46.940Z,17.00
2023-03-13T17:22:14.688Z,16.90
2023-03-13T17:24:41.729Z,16.90
2023-03-13T17:27:13.214Z,16.80
2023-03-13T17:29:40.245Z,16.70
2023-03-13T17:32:07.344Z,16.50
2023-03-13T17:34:34.330Z,16.40
2023-03-13T17:37:04.822Z,16.30
2023-03-13T17:39:31.868Z,16.20
2023-03-13T17:42:00.477Z,16.20
2023-03-13T17:44:27.388Z,16.00
2023-03-13T17:46:54.417Z,16.00
2023-03-13T17:49:21.437Z,15.90
2023-03-13T17:51:50.164Z,15.80
2023-03-13T17:54:18.607Z,15.70
2023-03-13T17:56:46.194Z,15.70
2023-03-13T17:59:14.533Z,15.70
2023-03-13T18:01:42.517Z,15.70
2023-03-13T18:04:10.546Z,15.60
2023-03-13T18:06:39.259Z,15.60
2023-03-13T18:09:08.795Z,15.50
2023-03-13T18:11:36.573Z,15.40
2023-03-13T18:14:04.490Z,15.30
2023-03-13T18:16:38.966Z,15.20
2023-03-13T18:19:15.347Z,15.20
2023-03-13T18:21:42.770Z,15.20
2023-03-13T18:24:09.679Z,15.10
2023-03-13T18:26:38.284Z,15.10
2023-03-13T18:29:14.352Z,15.00
2023-03-13T18:31:42.742Z,15.00
2023-03-13T18:34:10.760Z,15.10
2023-03-13T18:36:38.108Z,15.00
2023-03-13T18:39:06.518Z,15.10
2023-03-13T18:41:33.853Z,15.00
2023-03-13T18:44:03.612Z,15.00
2023-03-13T18:46:34.817Z,15.00
2023-03-13T18:49:01.821Z,14.90
2023-03-13T18:51:29.114Z,14.90
2023-03-13T18:53:56.225Z,15.00
2023-03-13T18:56:28.069Z,15.10
2023-03-13T18:58:55.918Z,15.10
2023-03-13T19:01:24.290Z,15.00
2023-03-13T19:03:51.900Z,15.00
2023-03-13T19:06:23.478Z,14.90
2023-03-13T19:08:51.840Z,14.90
2023-03-13T19:11:21.834Z,14.90
2023-03-13T19:13:49.090Z,14.90
2023-03-13T19:16:21.755Z,14.80
2023-03-13T19:18:48.950Z,14.70
2023-03-13T19:21:33.980Z,14.80
2023-03-13T19:24:01.335Z,15.00
2023-03-13T19:26:32.380Z,15.10
2023-03-13T19:28:59.534Z,15.00
2023-03-13T19:31:26.899Z,15.10
2023-03-13T19:33:54.539Z,15.10
2023-03-13T19:36:22.478Z,15.10
2023-03-13T19:38:49.420Z,15.20
2023-03-13T19:41:16.770Z,15.20
2023-03-13T19:43:43.823Z,15.30
2023-03-13T19:46:27.850Z,15.20
2023-03-13T19:48:56.297Z,15.20
2023-03-13T19:51:23.871Z,15.10
2023-03-13T19:53:50.864Z,15.10
2023-03-13T19:56:28.467Z,15.10
2023-03-13T19:58:59.526Z,15.00
2023-03-13T20:01:26.445Z,15.00
2023-03-13T20:03:53.511Z,15.10
2023-03-13T20:06:24.753Z,15.10
2023-03-13T20:08:55.860Z,15.10
2023-03-13T20:11:23.472Z,15.10
2023-03-13T20:13:50.401Z,15.00
2023-03-13T20:16:18.412Z,14.90
2023-03-13T20:18:48.771Z,14.80
2023-03-13T20:21:16.888Z,14.80
2023-03-13T20:23:44.358Z,14.80
2023-03-13T20:26:12.297Z,14.70
2023-03-13T20:28:40.081Z,14.70
2023-03-13T20:31:07.821Z,14.60
2023-03-13T20:33:37.203Z,14.70
2023-03-13T20:36:09.426Z,14.70
2023-03-13T20:38:36.811Z,14.70
2023-03-13T20:41:04.250Z,14.60
2023-03-13T20:43:31.862Z,14.50
2023-03-13T20:45:59.715Z,14.40
2023-03-13T20:48:26.837Z,14.50
2023-03-13T20:50:56.208Z,14.70
2023-03-13T20:53:25.969Z,14.80
2023-03-13T20:55:55.257Z,14.70
2023-03-13T20:58:22.242Z,14.80
2023-03-13T21:00:50.013Z,14.70
2023-03-13T21:03:20.201Z,14.50
2023-03-13T21:05:47.101Z,14.40
2023-03-13T21:08:14.986Z,14.30
2023-03-13T21:10:42.105Z,14.40
2023-03-13T21:13:09.721Z,14.40
2023-03-13T21:15:37.466Z,14.30
2023-03-13T21:18:05.009Z,14.30
2023-03-13T21:20:32.153Z,14.30
2023-03-13T21:22:59.028Z,14.40
2023-03-13T21:25:25.988Z,14.50
2023-03-13T21:27:52.971Z,14.60
2023-03-13T21:30:21.324Z,14.80
2023-03-13T21:32:51.253Z,14.90
2023-03-13T21:35:18.280Z,14.90
2023-03-13T21:37:45.958Z,14.90
2023-03-13T21:40:13.364Z,14.90
2023-03-13T21:42:40.686Z,14.90
2023-03-13T21:45:08.798Z,14.90
2023-03-13T21:47:48.247Z,14.80
2023-03-13T21:50:16.878Z,14.80
2023-03-13T21:52:47.126Z,14.90
2023-03-13T21:55:14.975Z,15.00
2023-03-13T21:57:42.754Z,15.10
2023-03-13T22:00:11.329Z,15.10
2023-03-13T22:02:38.429Z,15.10
2023-03-13T22:05:06.756Z,15.20
2023-03-13T22:07:34.273Z,15.20
2023-03-13T22:10:01.270Z,15.10
2023-03-13T22:12:28.548Z,15.00
2023-03-13T22:14:57.678Z,14.90
2023-03-13T22:17:24.719Z,14.80
2023-03-13T22:19:51.689Z,14.80
2023-03-13T22:22:20.191Z,14.80
2023-03-13T22:24:51.279Z,14.80
2023-03-13T22:27:19.549Z,14.90
2023-03-13T22:29:48.426Z,14.90
2023-03-13T22:32:16.927Z,14.90
2023-03-13T22:34:47.323Z,14.70
2023-03-13T22:37:14.373Z,14.70
2023-03-13T22:39:41.234Z,14.60
2023-03-13T22:42:08.155Z,14.60
2023-03-13T22:44:35.627Z,14.50
2023-03-13T22:47:02.539Z,14.50
2023-03-13T22:49:29.529Z,14.30
2023-03-13T22:51:56.586Z,14.20
2023-03-13T22:54:23.507Z,14.30
2023-03-13T22:56:50.386Z,14.30
2023-03-13T22:59:17.308Z,14.40
2023-03-13T23:01:44.283Z,14.30
2023-03-13T23:04:11.247Z,14.40
2023-03-13T23:06:38.269Z,14.30
2023-03-13T23:09:06.676Z,14.10
2023-03-13T23:11:33.851Z,14.20
2023-03-13T23:14:01.221Z,14.30
2023-03-13T23:16:28.307Z,14.40
2023-03-13T23:18:55.399Z,14.30
2023-03-13T23:21:22.411Z,14.20
2023-03-13T23:23:49.305Z,14.10
2023-03-13T23:26:19.247Z,14.10
2023-03-13T23:28:46.116Z,14.20
2023-03-13T23:31:14.584Z,14.30
2023-03-13T23:33:41.887Z,14.30
2023-03-13T23:36:10.245Z,14.10
2023-03-13T23:38:37.237Z,14.10
2023-03-13T23:41:07.900Z,14.20
2023-03-13T23:43:35.109Z,14.10
2023-03-13T23:46:02.337Z,14.20
2023-03-13T23:48:29.393Z,14.30
2023-03-13T23:50:56.561Z,14.20
2023-03-13T23:53:23.924Z,14.30
2023-03-13T23:55:59.894Z,14.20
2023-03-13T23:58:26.905Z,14.30
